Crew | Aerofun Virtual



 METAR AND TAF INFORMATION
METAR FOR GCGM
ADDS - METARS form results

(2346 UTC 11 November 2019)
Data provider http://aviationweather.gov/metar/data/
 
METAR text: GCGM 112330Z AUTO VRB05KT 9999 NCD 21/15 Q1021 RMK R09/VRB08KT ARP/25007KT 190V340
Conditions at: GCGM (LA GOMERA ARPT , ES) observed 2330 UTC 11 November 2019
Temperature: 21.0°C (70°F)
Dewpoint: 15.0°C (59°F) [RH = 69%]
Pressure (altimeter): 30.15 inches Hg (1021.0 mb)
Winds: variable direction winds at 6 MPH (5 knots; 2.6 m/s)
Visibility: 6 or more miles (10+ km)
Ceiling: at least 12,000 feet AGL
Clouds: sky clear below 12,000 feet AGL
Weather: no significant weather observed at this time

METAR text: GCGM 112300Z AUTO 28008KT 240V350 9999 NCD 20/14 Q1021 RMK R09/29009KT 240V350 ARP/30008KT 270V000
Conditions at: GCGM (LA GOMERA ARPT , ES) observed 2300 UTC 11 November 2019
Temperature: 20.0°C (68°F)
Dewpoint: 14.0°C (57°F) [RH = 68%]
Pressure (altimeter): 30.15 inches Hg (1021.0 mb)
Winds: from the W (280 degrees) at 9 MPH (8 knots; 4.1 m/s)
Visibility: 6 or more miles (10+ km)
Ceiling: at least 12,000 feet AGL
Clouds: sky clear below 12,000 feet AGL
Weather: no significant weather observed at this time

Forecast for: GCGM (LA GOMERA ARPT , ES)
Text: TAF GCGM 112000Z 1121/1221 VRB07KT 9999 FEW030 TX25/1214Z TN19/1206Z
Forecast period: 2100 UTC 11 November 2019 to 2100 UTC 12 November 2019
Forecast type: FROM: standard forecast or significant change
Winds: variable direction winds at 8 MPH (7 knots; 3.6 m/s)
Visibility: 6 or more miles 10+ km)
Ceiling: at least 12,000 feet AGL
Clouds: few clouds at 3000 feet AGL
Weather: no significant weather forecast for this period
Text: PROB40
Forecast period: 2100 UTC 11 November 2019 to 0000 UTC 12 November 2019
Forecast type: TEMPORARY: The following changes expected for less than half the time period
Winds: variable direction winds at 20 MPH (17 knots; 8.7 m/s)
gusting to 34 MPH (30 knots; 15.4 m/s)
Visibility: missing
Ceiling: unknown
Clouds: missing
Weather: no significant weather forecast for this period

 AIRPORT MAP

 RUNWAY INFORMATION
Runway 09 Runway length 4921 ft Runway width 98 ft
Runway elevation 716 ft Runway displaced threshold 0 ft Runway heading 81
Runway 27 Runway length 4921 ft Runway width 98 ft
Runway elevation 712 ft Runway displaced threshold 0 ft Runway heading 261

 AIRPORT FREQUENCIES
Type GND Name GND Frequency 121.7 MHZ
Type TWR Name TWR Frequency 118.4 MHZ

 AIRPORT NEAR NAVIGATION AIDS
Type VOR-DME Name La Gomera Frequency 116000 KHZ